Safford, AZ

10:17 PM MST on October 20, 2014 (GMT -0700)
Safford Regional | Change Station
CLOSE
Current Station
Airport
Location: Safford,
Elevation: 3176 ft
Nearby Weather Stations

Elev 3176 ft 32.86 °N, 109.64 °W | Updated 26 minutes ago

Clear
Clear
62 °F
Feels Like 62 °F
N
8
Wind Variable Wind from East

Today
High -- | Low -- °F
--% Chance of Precip.
Yesterday
High -- | Low -- °F
Precip. -- in
6:26 AM 5:39 PM
Waning Crescent, 7% visible
Pressure 29.90 in
Visibility 10.0 miles
Clouds Clear
Dew Point 50 °F
Humidity 65%
Rainfall 0.00 in
Snow Depth Not available.
UV 0 out of 12
Pollen 5.20 out of 12
Air Quality Not available.
Flu Activity No Activity
METAR KSAD 210451Z AUTO 10007KT 10SM CLR 17/10 A3000 RMK AO2 SLP124 T01670100

More Conditions Fewer Conditions

Pressure 29.90 in
Visibility 10.0 miles
Clouds Clear
Dew Point 50 °F
Humidity 65%
Rainfall 0.00 in
Snow Depth Not available.
UV 0 out of 12
Pollen 5.20 out of 12
Air Quality Not available.
Flu Activity No Activity
METAR KSAD 210451Z AUTO 10007KT 10SM CLR 17/10 A3000 RMK AO2 SLP124 T01670100

More Conditions Fewer Conditions

10-Day Weather Forecast

Almanac

Astronomy

Oct. 20, 2014 Rise Set
Actual Time 6:26 AM MST 5:39 PM MST
Civil Twilight 6:01 AM MST 6:04 PM MST
Nautical Twilight 5:33 AM MST 6:33 PM MST
Astronomical Twilight 5:04 AM MST 7:02 PM MST
Moon 3:28 AM MST (10/20) 3:56 PM MST (10/20)
Length of Visible Light 12h 03m
Length of Day
11h 13m
Tomorrow will be 1m 54s shorter.
Waning Crescent, 7% of the Moon is Illuminated
Oct 21
Waning Crescent
Oct 23
New
Oct 30
First Quarter
Nov 6
Full
Nov 14
Last Quarter

Yesterday's Extremes

State Highs State Lows

Community

WunderPhotos

Upload Photos

1,763,612 photos uploaded!

Nearby

Snow Depth

Station Depth Elevation
Hannagan Meadows 1 in 9020 ft
Wildcat 0 in 7850 ft
Beaver Head 1 in 7990 ft
Coronado Trail 1 in 8400 ft
Maverick Fork 1 in 9200 ft

Earthquake Activity

City Distance Mag. Time & Date
No recent earthquake activity has been reported nearby.
Minimum magnitude displayed is 2.5.

Coastal Water Temperatures

Place Temperature
No Stations Reporting

Nearby Weather Stations